createdAt,value
2022-10-14T00:01:04.597Z,14.00
2022-10-14T00:03:32.833Z,14.00
2022-10-14T00:06:00.704Z,14.00
2022-10-14T00:08:28.581Z,14.00
2022-10-14T00:10:57.719Z,14.00
2022-10-14T00:13:25.538Z,14.00
2022-10-14T00:15:53.387Z,14.00
2022-10-14T00:18:21.235Z,14.00
2022-10-14T00:20:55.731Z,14.00
2022-10-14T00:23:23.602Z,14.00
2022-10-14T00:25:51.711Z,14.00
2022-10-14T00:28:21.215Z,14.00
2022-10-14T00:30:56.648Z,14.00
2022-10-14T00:33:25.136Z,14.00
2022-10-14T00:35:56.879Z,14.00
2022-10-14T00:38:24.866Z,14.00
2022-10-14T00:40:52.867Z,14.00
2022-10-14T00:43:24.148Z,13.90
2022-10-14T00:45:51.993Z,13.90
2022-10-14T00:48:21.927Z,13.90
2022-10-14T00:50:53.598Z,13.90
2022-10-14T00:53:22.383Z,13.90
2022-10-14T00:55:50.365Z,13.90
2022-10-14T00:58:18.423Z,13.90
2022-10-14T01:00:47.638Z,13.90
2022-10-14T01:03:20.551Z,13.90
2022-10-14T01:05:54.122Z,13.90
2022-10-14T01:08:28.582Z,13.90
2022-10-14T01:11:02.991Z,13.90
2022-10-14T01:13:34.722Z,13.90
2022-10-14T01:16:14.591Z,13.90
2022-10-14T01:19:00.347Z,13.90
2022-10-14T01:21:33.233Z,13.90
2022-10-14T01:24:39.614Z,13.90
2022-10-14T01:27:28.556Z,13.90
2022-10-14T01:30:11.331Z,13.90
2022-10-14T01:32:50.062Z,13.90
2022-10-14T01:35:27.583Z,13.90
2022-10-14T01:38:00.584Z,13.90
2022-10-14T01:40:36.305Z,13.90
2022-10-14T01:43:06.788Z,13.90
2022-10-14T01:45:39.016Z,13.90
2022-10-14T01:48:07.515Z,13.90
2022-10-14T01:50:37.729Z,13.90
2022-10-14T01:53:10.515Z,13.90
2022-10-14T01:55:43.737Z,13.90
2022-10-14T01:58:14.591Z,13.90
2022-10-14T02:00:44.002Z,13.90
2022-10-14T02:03:14.133Z,13.90
2022-10-14T02:05:47.641Z,13.90
2022-10-14T02:08:29.960Z,13.90
2022-10-14T02:11:09.981Z,13.90
2022-10-14T02:13:52.154Z,13.90
2022-10-14T02:16:27.700Z,13.90
2022-10-14T02:19:03.509Z,13.90
2022-10-14T02:21:37.258Z,13.90
2022-10-14T02:24:09.709Z,13.90
2022-10-14T02:26:39.112Z,13.90
2022-10-14T02:29:07.561Z,13.90
2022-10-14T02:31:40.693Z,13.90
2022-10-14T02:34:13.789Z,13.90
2022-10-14T02:36:43.755Z,13.90
2022-10-14T02:39:15.379Z,13.90
2022-10-14T02:41:43.400Z,13.90
2022-10-14T02:44:11.249Z,13.80
2022-10-14T02:46:41.829Z,13.90
2022-10-14T02:49:09.696Z,13.90
2022-10-14T02:51:37.623Z,13.90
2022-10-14T02:54:05.524Z,13.90
2022-10-14T02:56:33.362Z,13.90
2022-10-14T02:59:01.178Z,13.90
2022-10-14T03:01:30.719Z,13.90
2022-10-14T03:04:02.947Z,13.90
2022-10-14T03:06:30.786Z,13.90
2022-10-14T03:08:58.598Z,13.90
2022-10-14T03:11:26.465Z,13.90
2022-10-14T03:13:54.276Z,13.90
2022-10-14T03:16:22.195Z,13.90
2022-10-14T03:18:50.011Z,13.90
2022-10-14T03:21:19.469Z,13.90
2022-10-14T03:23:47.313Z,13.90
2022-10-14T03:26:15.106Z,13.90
2022-10-14T03:28:43.083Z,13.90
2022-10-14T03:31:10.977Z,13.90
2022-10-14T03:33:38.803Z,13.90
2022-10-14T03:36:07.046Z,13.90
2022-10-14T03:38:36.277Z,13.90
2022-10-14T03:41:04.112Z,14.00
2022-10-14T03:43:31.988Z,14.00
2022-10-14T03:46:00.024Z,14.00
2022-10-14T03:48:27.822Z,14.00
2022-10-14T03:50:55.640Z,14.00
2022-10-14T03:53:23.491Z,14.00
2022-10-14T03:55:52.701Z,14.00
2022-10-14T03:58:20.528Z,14.00
2022-10-14T04:00:48.411Z,14.00
2022-10-14T04:03:16.281Z,14.00
2022-10-14T04:05:44.156Z,13.90
2022-10-14T04:08:11.980Z,14.00
2022-10-14T04:10:39.814Z,14.00
2022-10-14T04:13:09.038Z,13.90
2022-10-14T04:15:37.343Z,13.90
2022-10-14T04:18:05.210Z,13.90
2022-10-14T04:20:33.300Z,13.90
2022-10-14T04:23:01.540Z,13.90
2022-10-14T04:25:29.415Z,13.80
2022-10-14T04:27:57.334Z,13.80
2022-10-14T04:30:26.523Z,13.80
2022-10-14T04:32:54.364Z,13.80
2022-10-14T04:35:22.204Z,13.80
2022-10-14T04:37:50.080Z,13.80
2022-10-14T04:40:20.447Z,13.80
2022-10-14T04:42:48.319Z,13.70
2022-10-14T04:45:16.309Z,13.80
2022-10-14T04:47:48.606Z,13.80
2022-10-14T04:50:17.029Z,13.80
2022-10-14T04:52:45.052Z,13.80
2022-10-14T04:55:13.486Z,13.80
2022-10-14T04:57:43.783Z,13.70
2022-10-14T05:00:13.061Z,13.80
2022-10-14T05:02:40.957Z,13.80
2022-10-14T05:05:10.876Z,13.80
2022-10-14T05:07:39.198Z,13.80
2022-10-14T05:10:09.719Z,13.80
2022-10-14T05:12:38.615Z,13.80
2022-10-14T05:15:07.860Z,13.80
2022-10-14T05:17:36.447Z,13.80
2022-10-14T05:20:04.575Z,13.80
2022-10-14T05:22:34.037Z,13.80
2022-10-14T05:25:02.046Z,13.70
2022-10-14T05:27:29.970Z,13.80
2022-10-14T05:29:57.817Z,13.80
2022-10-14T05:32:25.816Z,13.80
2022-10-14T05:34:53.671Z,13.70
2022-10-14T05:37:21.612Z,13.80
2022-10-14T05:39:50.828Z,13.80
2022-10-14T05:42:18.903Z,13.80
2022-10-14T05:44:47.013Z,13.80
2022-10-14T05:47:15.195Z,13.80
2022-10-14T05:49:43.045Z,13.80
2022-10-14T05:52:10.970Z,13.80
2022-10-14T05:54:38.844Z,13.80
2022-10-14T05:57:08.076Z,13.80
2022-10-14T05:59:36.005Z,13.80
2022-10-14T06:02:04.274Z,13.80
2022-10-14T06:04:32.141Z,13.80
2022-10-14T06:07:00.337Z,13.80
2022-10-14T06:09:28.276Z,13.80
2022-10-14T06:11:56.128Z,13.80
2022-10-14T06:14:25.468Z,13.80
2022-10-14T06:16:53.318Z,13.80
2022-10-14T06:19:21.289Z,13.80
2022-10-14T06:21:49.396Z,13.80
2022-10-14T06:24:17.485Z,13.80
2022-10-14T06:26:45.355Z,13.90
2022-10-14T06:29:13.319Z,13.90
2022-10-14T06:31:42.681Z,13.90
2022-10-14T06:34:10.635Z,13.90
2022-10-14T06:36:38.525Z,13.90
2022-10-14T06:39:06.407Z,13.90
2022-10-14T06:41:34.250Z,14.00
2022-10-14T06:44:02.127Z,13.90
2022-10-14T06:46:31.318Z,13.90
2022-10-14T06:49:00.715Z,13.90
2022-10-14T06:51:28.756Z,14.00
2022-10-14T06:53:56.595Z,14.00
2022-10-14T06:56:24.423Z,14.00
2022-10-14T06:58:54.880Z,14.00
2022-10-14T07:01:23.594Z,14.00
2022-10-14T07:03:54.255Z,14.10
2022-10-14T07:06:25.969Z,14.10
2022-10-14T07:08:54.067Z,14.20
2022-10-14T07:11:21.985Z,14.10
2022-10-14T07:13:50.045Z,14.10
2022-10-14T07:16:17.891Z,14.20
2022-10-14T07:18:45.806Z,14.20
2022-10-14T07:21:13.628Z,14.30
2022-10-14T07:23:42.868Z,14.40
2022-10-14T07:26:10.751Z,14.40
2022-10-14T07:28:38.649Z,14.50
2022-10-14T07:31:08.233Z,14.50
2022-10-14T07:36:07.322Z,14.60
2022-10-14T07:38:35.289Z,14.70
2022-10-14T07:41:06.442Z,14.80
2022-10-14T07:43:36.072Z,15.00
2022-10-14T07:46:07.524Z,15.10
2022-10-14T07:48:52.694Z,15.20
2022-10-14T07:51:24.489Z,15.20
2022-10-14T07:53:53.283Z,15.30
2022-10-14T07:56:23.384Z,15.30
2022-10-14T07:58:51.220Z,15.40
2022-10-14T08:01:19.274Z,15.40
2022-10-14T08:03:48.959Z,15.50
2022-10-14T08:06:17.363Z,15.70
2022-10-14T08:08:45.249Z,15.90
2022-10-14T08:11:15.116Z,16.00
2022-10-14T08:13:46.318Z,16.10
2022-10-14T08:16:16.930Z,16.30
2022-10-14T08:18:45.165Z,16.60
2022-10-14T08:21:13.650Z,16.70
2022-10-14T08:23:41.852Z,16.80
2022-10-14T08:26:21.514Z,16.70
2022-10-14T08:28:51.936Z,16.80
2022-10-14T08:31:19.857Z,17.10
2022-10-14T08:33:48.259Z,17.40
2022-10-14T08:36:16.767Z,17.50
2022-10-14T08:38:44.736Z,17.40
2022-10-14T08:41:27.472Z,17.20
2022-10-14T08:44:10.618Z,17.10
2022-10-14T08:46:41.400Z,16.90
2022-10-14T08:49:16.081Z,16.80
2022-10-14T08:51:47.920Z,16.70
2022-10-14T08:54:20.802Z,16.60
2022-10-14T08:56:48.743Z,16.60
2022-10-14T08:59:21.139Z,16.50
2022-10-14T09:01:52.973Z,16.40
2022-10-14T09:04:21.379Z,16.40
2022-10-14T09:06:51.426Z,16.30
2022-10-14T09:09:24.954Z,16.30
2022-10-14T09:11:57.185Z,16.30
2022-10-14T09:14:30.946Z,16.30
2022-10-14T09:17:04.511Z,16.30
2022-10-14T09:19:34.069Z,16.20
2022-10-14T09:22:02.739Z,16.20
2022-10-14T09:24:35.423Z,16.20
2022-10-14T09:27:06.878Z,16.20
2022-10-14T09:29:43.839Z,16.20
2022-10-14T09:32:16.551Z,16.20
2022-10-14T09:34:49.800Z,16.20
2022-10-14T09:37:28.758Z,16.30
2022-10-14T09:39:59.552Z,16.30
2022-10-14T09:42:32.401Z,16.30
2022-10-14T09:45:14.237Z,16.30
2022-10-14T09:47:49.838Z,16.30
2022-10-14T09:50:24.591Z,16.30
2022-10-14T09:53:01.437Z,16.30
2022-10-14T09:55:29.750Z,16.40
2022-10-14T09:58:05.432Z,16.40
2022-10-14T10:00:37.956Z,16.30
2022-10-14T10:03:07.098Z,16.40
2022-10-14T10:05:36.584Z,16.40
2022-10-14T10:08:11.073Z,16.50
2022-10-14T10:10:39.000Z,16.50
2022-10-14T10:13:23.108Z,16.60
2022-10-14T10:16:01.097Z,16.80
2022-10-14T10:18:29.050Z,17.00
2022-10-14T10:21:07.485Z,17.20
2022-10-14T10:23:37.386Z,17.40
2022-10-14T10:26:21.450Z,17.60
2022-10-14T10:28:50.634Z,17.60
2022-10-14T10:31:35.089Z,17.60
2022-10-14T10:34:13.705Z,17.70
2022-10-14T10:36:48.249Z,17.90
2022-10-14T10:39:24.867Z,17.90
2022-10-14T10:42:06.580Z,17.90
2022-10-14T10:45:03.385Z,18.00
2022-10-14T10:47:45.609Z,18.10
2022-10-14T10:50:28.726Z,18.30
2022-10-14T10:53:11.369Z,18.40
2022-10-14T10:55:49.710Z,18.30
2022-10-14T10:58:44.177Z,18.20
2022-10-14T11:01:26.286Z,18.10
2022-10-14T11:04:05.974Z,18.00
2022-10-14T11:07:00.946Z,18.00
2022-10-14T11:09:52.709Z,18.10
2022-10-14T11:12:27.491Z,18.20
2022-10-14T11:15:27.163Z,18.50
2022-10-14T11:18:02.394Z,18.80
2022-10-14T11:20:43.212Z,18.90
2022-10-14T11:23:37.519Z,19.10
2022-10-14T11:26:28.193Z,19.40
2022-10-14T11:29:03.320Z,20.20
2022-10-14T11:31:41.293Z,20.90
2022-10-14T11:34:24.672Z,21.10
2022-10-14T11:37:02.373Z,20.90
2022-10-14T11:39:41.028Z,20.60
2022-10-14T11:42:18.481Z,20.30
2022-10-14T11:44:47.460Z,20.00
2022-10-14T11:47:22.253Z,19.80
2022-10-14T11:49:57.859Z,19.40
2022-10-14T11:52:30.925Z,19.20
2022-10-14T11:55:04.023Z,19.00
2022-10-14T11:57:36.754Z,18.80
2022-10-14T12:00:08.660Z,18.60
2022-10-14T12:02:42.258Z,18.40
2022-10-14T12:05:19.297Z,18.30
2022-10-14T12:08:03.753Z,18.10
2022-10-14T12:10:36.182Z,18.00
2022-10-14T12:13:07.918Z,17.90
2022-10-14T12:15:38.507Z,17.80
2022-10-14T12:18:07.620Z,17.80
2022-10-14T12:20:41.283Z,17.70
2022-10-14T12:23:15.080Z,17.70
2022-10-14T12:25:53.014Z,17.70
2022-10-14T12:28:22.092Z,17.80
2022-10-14T12:30:51.872Z,17.90
2022-10-14T12:33:23.013Z,18.00
2022-10-14T12:35:59.120Z,18.00
2022-10-14T12:38:29.804Z,18.10
2022-10-14T12:41:38.978Z,18.20
2022-10-14T12:44:14.197Z,18.30
2022-10-14T12:46:45.032Z,18.40
2022-10-14T12:49:19.553Z,18.50
2022-10-14T12:51:54.931Z,18.60
2022-10-14T12:54:24.097Z,18.60
2022-10-14T12:56:59.241Z,18.50
2022-10-14T12:59:31.601Z,18.50
2022-10-14T13:02:04.171Z,18.60
2022-10-14T13:04:33.186Z,18.60
2022-10-14T13:07:46.390Z,18.70
2022-10-14T13:10:46.966Z,18.70
2022-10-14T13:13:53.364Z,18.60
2022-10-14T13:17:05.825Z,18.50
2022-10-14T13:19:44.546Z,18.40
2022-10-14T13:22:41.052Z,18.20
2022-10-14T13:25:18.403Z,18.10
2022-10-14T13:28:14.260Z,18.00
2022-10-14T13:30:55.014Z,17.90
2022-10-14T13:33:32.064Z,17.80
2022-10-14T13:36:11.924Z,17.80
2022-10-14T13:38:44.447Z,17.70
2022-10-14T13:41:18.477Z,17.70
2022-10-14T13:43:46.490Z,17.70
2022-10-14T13:46:17.660Z,17.70
2022-10-14T13:48:49.689Z,17.80
2022-10-14T13:51:36.759Z,17.80
2022-10-14T13:54:17.818Z,17.80
2022-10-14T13:57:19.842Z,17.80
2022-10-14T14:02:37.103Z,17.60
2022-10-14T14:05:05.393Z,17.60
2022-10-14T14:08:08.386Z,17.50
2022-10-14T14:10:26.297Z,17.50
2022-10-14T14:12:54.266Z,17.50
2022-10-14T14:15:25.634Z,17.50
2022-10-14T14:17:54.097Z,17.50
2022-10-14T14:20:23.804Z,17.50
2022-10-14T14:22:53.191Z,17.50
2022-10-14T14:26:01.248Z,17.40
2022-10-14T14:28:15.345Z,17.40
2022-10-14T14:30:54.635Z,17.30
2022-10-14T14:33:29.520Z,17.30
2022-10-14T14:35:59.789Z,17.20
2022-10-14T14:38:31.586Z,17.20
2022-10-14T14:41:04.919Z,17.20
2022-10-14T14:43:36.475Z,17.10
2022-10-14T14:46:07.679Z,17.10
2022-10-14T14:48:35.999Z,17.10
2022-10-14T14:51:04.391Z,17.10
2022-10-14T14:53:33.729Z,17.10
2022-10-14T14:56:06.798Z,17.10
2022-10-14T14:58:39.700Z,17.10
2022-10-14T15:01:08.271Z,17.00
2022-10-14T15:04:13.686Z,17.00
2022-10-14T15:06:40.943Z,17.00
2022-10-14T15:09:24.726Z,17.00
2022-10-14T15:11:55.627Z,16.90
2022-10-14T15:14:34.408Z,17.00
2022-10-14T15:17:05.510Z,16.90
2022-10-14T15:19:38.770Z,16.90
2022-10-14T15:22:12.543Z,16.90
2022-10-14T15:25:07.244Z,16.90
2022-10-14T15:27:48.547Z,16.90
2022-10-14T15:30:34.911Z,16.80
2022-10-14T15:33:12.001Z,16.80
2022-10-14T15:35:40.117Z,16.80
2022-10-14T15:38:15.968Z,16.80
2022-10-14T15:40:46.838Z,16.80
2022-10-14T15:43:17.721Z,16.70
2022-10-14T15:46:08.223Z,16.70
2022-10-14T15:48:36.437Z,16.70
2022-10-14T15:51:05.579Z,16.70
2022-10-14T15:53:34.296Z,16.70
2022-10-14T15:56:04.410Z,16.60
2022-10-14T15:58:33.677Z,16.60
2022-10-14T16:01:02.100Z,16.60
2022-10-14T16:03:34.577Z,16.60
2022-10-14T16:06:03.828Z,16.50
2022-10-14T16:08:31.693Z,16.50
2022-10-14T16:10:59.595Z,16.50
2022-10-14T16:13:28.885Z,16.40
2022-10-14T16:15:59.755Z,16.40
2022-10-14T16:18:27.645Z,16.40
2022-10-14T16:20:55.913Z,16.40
2022-10-14T16:23:29.731Z,16.30
2022-10-14T16:26:01.843Z,16.30
2022-10-14T16:28:31.102Z,16.30
2022-10-14T16:31:00.450Z,16.30
2022-10-14T16:33:28.443Z,16.20
2022-10-14T16:35:57.450Z,16.20
2022-10-14T16:38:25.663Z,16.20
2022-10-14T16:40:56.960Z,16.20
2022-10-14T16:43:25.011Z,16.20
2022-10-14T16:45:54.552Z,16.20
2022-10-14T16:48:22.510Z,16.10
2022-10-14T16:50:51.135Z,16.10
2022-10-14T16:53:36.918Z,16.10
2022-10-14T16:56:25.323Z,16.10
2022-10-14T16:58:53.237Z,16.10
2022-10-14T17:01:22.456Z,16.10
2022-10-14T17:03:50.559Z,16.10
2022-10-14T17:06:23.245Z,16.10
2022-10-14T17:08:52.308Z,16.10
2022-10-14T17:11:20.561Z,16.10
2022-10-14T17:13:51.568Z,16.10
2022-10-14T17:16:19.521Z,16.00
2022-10-14T17:21:22.467Z,16.00
2022-10-14T17:23:51.575Z,16.00
2022-10-14T17:26:20.210Z,16.00
2022-10-14T17:28:49.191Z,16.00
2022-10-14T17:31:19.905Z,16.00
2022-10-14T17:33:49.149Z,16.00
2022-10-14T17:36:19.410Z,16.00
2022-10-14T17:38:48.322Z,15.90
2022-10-14T17:41:16.676Z,15.90
2022-10-14T17:43:45.872Z,15.90
2022-10-14T17:46:14.498Z,15.90
2022-10-14T17:48:43.208Z,15.90
2022-10-14T17:51:14.965Z,15.90
2022-10-14T17:53:42.812Z,15.90
2022-10-14T17:56:12.939Z,15.90
2022-10-14T17:58:41.152Z,15.90
2022-10-14T18:01:10.704Z,15.90
2022-10-14T18:03:40.932Z,15.90
2022-10-14T18:06:15.763Z,15.90
2022-10-14T18:08:45.562Z,15.90
2022-10-14T18:11:14.013Z,15.90
2022-10-14T18:13:41.987Z,15.90
2022-10-14T18:16:11.945Z,15.90
2022-10-14T18:18:40.091Z,15.90
2022-10-14T18:21:08.456Z,15.90
2022-10-14T18:23:39.758Z,15.90
2022-10-14T18:26:13.254Z,15.80
2022-10-14T18:28:43.357Z,15.80
2022-10-14T18:31:13.988Z,15.80
2022-10-14T18:33:43.062Z,15.80
2022-10-14T18:36:13.243Z,15.80
2022-10-14T18:38:42.895Z,15.80
2022-10-14T18:41:14.208Z,15.80
2022-10-14T18:43:42.674Z,15.80
2022-10-14T18:46:13.688Z,15.80
2022-10-14T18:48:43.018Z,15.80
2022-10-14T18:51:12.304Z,15.80
2022-10-14T18:53:44.989Z,15.80
2022-10-14T18:56:15.435Z,15.70
2022-10-14T18:58:43.656Z,15.70
2022-10-14T19:01:12.165Z,15.70
2022-10-14T19:03:40.669Z,15.70
2022-10-14T19:06:09.877Z,15.70
2022-10-14T19:08:39.032Z,15.70
2022-10-14T19:11:10.152Z,15.70
2022-10-14T19:13:40.289Z,15.70
2022-10-14T19:16:12.443Z,15.60
2022-10-14T19:18:40.388Z,15.60
2022-10-14T19:21:09.873Z,15.60
2022-10-14T19:23:38.537Z,15.60
2022-10-14T19:26:08.534Z,15.60
2022-10-14T19:28:36.614Z,15.50
2022-10-14T19:31:06.748Z,15.60
2022-10-14T19:33:36.459Z,15.60
2022-10-14T19:36:04.599Z,15.50
2022-10-14T19:38:32.681Z,15.50
2022-10-14T19:41:01.458Z,15.50
2022-10-14T19:43:31.041Z,15.50
2022-10-14T19:45:59.412Z,15.50
2022-10-14T19:48:27.446Z,15.50
2022-10-14T19:50:55.469Z,15.50
2022-10-14T19:53:23.506Z,15.50
2022-10-14T19:56:04.994Z,15.50
2022-10-14T19:58:34.902Z,15.50
2022-10-14T20:01:08.717Z,15.50
2022-10-14T20:03:36.652Z,15.40
2022-10-14T20:06:05.224Z,15.40
2022-10-14T20:08:33.619Z,15.40
2022-10-14T20:11:02.869Z,15.40
2022-10-14T20:13:31.050Z,15.40
2022-10-14T20:16:02.331Z,15.40
2022-10-14T20:18:34.085Z,15.40
2022-10-14T20:21:02.499Z,15.40
2022-10-14T20:23:30.720Z,15.40
2022-10-14T20:26:01.166Z,15.40
2022-10-14T20:28:29.045Z,15.40
2022-10-14T20:30:57.445Z,15.40
2022-10-14T20:33:26.728Z,15.40
2022-10-14T20:36:02.377Z,15.40
2022-10-14T20:38:30.962Z,15.40
2022-10-14T20:41:11.749Z,15.30
2022-10-14T20:43:40.167Z,15.30
2022-10-14T20:46:07.983Z,15.30
2022-10-14T20:48:37.965Z,15.30
2022-10-14T20:51:06.726Z,15.30
2022-10-14T20:53:34.834Z,15.30
2022-10-14T20:56:04.041Z,15.30
2022-10-14T20:58:31.910Z,15.30
2022-10-14T21:01:07.872Z,15.30
2022-10-14T21:03:37.405Z,15.30
2022-10-14T21:06:08.163Z,15.30
2022-10-14T21:08:36.356Z,15.30
2022-10-14T21:11:08.055Z,15.30
2022-10-14T21:13:38.477Z,15.20
2022-10-14T21:16:14.521Z,15.20
2022-10-14T21:18:46.167Z,15.20
2022-10-14T21:21:16.656Z,15.20
2022-10-14T21:23:45.324Z,15.20
2022-10-14T21:26:13.207Z,15.20
2022-10-14T21:28:41.217Z,15.20
2022-10-14T21:31:10.617Z,15.20
2022-10-14T21:33:38.690Z,15.20
2022-10-14T21:36:10.410Z,15.20
2022-10-14T21:38:38.377Z,15.20
2022-10-14T21:41:07.297Z,15.20
2022-10-14T21:43:36.899Z,15.20
2022-10-14T21:46:06.267Z,15.20
2022-10-14T21:48:34.165Z,15.10
2022-10-14T21:51:03.680Z,15.20
2022-10-14T21:53:33.504Z,15.10
2022-10-14T21:56:01.549Z,15.10
2022-10-14T21:58:29.871Z,15.20
2022-10-14T22:01:02.870Z,15.10
2022-10-14T22:03:30.876Z,15.10
2022-10-14T22:06:00.151Z,15.10
2022-10-14T22:08:32.779Z,15.20
2022-10-14T22:11:00.639Z,15.20
2022-10-14T22:13:29.018Z,15.10
2022-10-14T22:15:57.471Z,15.20
2022-10-14T22:18:25.729Z,15.20
2022-10-14T22:21:03.765Z,15.20
2022-10-14T22:23:33.709Z,15.20
2022-10-14T22:26:02.364Z,15.10
2022-10-14T22:28:31.545Z,15.10
2022-10-14T22:31:05.310Z,15.10
2022-10-14T22:33:36.067Z,15.10
2022-10-14T22:36:09.026Z,15.10
2022-10-14T22:38:39.909Z,15.10
2022-10-14T22:41:09.453Z,15.10
2022-10-14T22:43:37.810Z,15.10
2022-10-14T22:46:07.856Z,15.10
2022-10-14T22:48:36.469Z,15.10
2022-10-14T22:51:06.164Z,15.10
2022-10-14T22:53:34.717Z,15.10
2022-10-14T22:56:05.664Z,15.10
2022-10-14T22:58:33.573Z,15.10
2022-10-14T23:01:07.316Z,15.10
2022-10-14T23:03:35.801Z,15.10
2022-10-14T23:06:04.693Z,15.10
2022-10-14T23:08:33.040Z,15.10
2022-10-14T23:11:01.949Z,15.10
2022-10-14T23:13:31.356Z,15.10
2022-10-14T23:16:00.962Z,15.10
2022-10-14T23:18:30.811Z,15.20
2022-10-14T23:20:58.755Z,15.20
2022-10-14T23:23:26.703Z,15.10
2022-10-14T23:25:54.573Z,15.20
2022-10-14T23:28:22.434Z,15.20
2022-10-14T23:30:51.738Z,15.20
2022-10-14T23:33:19.634Z,15.20
2022-10-14T23:35:47.706Z,15.10
2022-10-14T23:38:15.568Z,15.20
2022-10-14T23:40:43.664Z,15.20
2022-10-14T23:43:11.559Z,15.20
2022-10-14T23:45:39.433Z,15.20
2022-10-14T23:48:09.349Z,15.20
2022-10-14T23:50:37.180Z,15.20
2022-10-14T23:53:05.180Z,15.20
2022-10-14T23:55:33.011Z,15.10
2022-10-14T23:58:00.825Z,15.10
